Time;durP1;ratioP1;P1;durP2;ratioP2;P2;SDS_P1;SDS_P2;PMS_P1;PMS_P2;Temp;Humidity;BMP_temperature;BMP_pressure;BME280_temperature;BME280_humidity;BME280_pressure;Samples;Min_cycle;Max_cycle;Signal;HPM_P1;HPM_P2
2021/11/17 02:27:36;;;;;;;15.77;10.17;;;5.60;99.90;;;;;;5006205;28;20730;-73
2021/11/17 02:30:26;;;;;;;15.80;10.80;;;5.50;99.90;;;;;;5006197;28;20254;-73
2021/11/17 02:33:18;;;;;;;15.70;10.80;;;5.60;99.90;;;;;;5006246;28;20243;-73
2021/11/17 02:36:00;;;;;;;13.50;10.20;;;5.60;99.90;;;;;;5006273;28;20616;-73
2021/11/17 02:38:43;;;;;;;14.57;9.70;;;5.60;99.90;;;;;;5006229;28;20197;-73
2021/11/17 02:41:32;;;;;;;13.60;9.73;;;5.60;99.90;;;;;;5005917;28;20233;-73
2021/11/17 02:44:16;;;;;;;12.87;9.23;;;5.50;99.90;;;;;;5005993;28;20274;-73
2021/11/17 02:46:55;;;;;;;11.00;8.50;;;5.50;99.90;;;;;;5006019;28;20205;-71
2021/11/17 02:49:39;;;;;;;10.73;8.00;;;5.50;99.90;;;;;;5006279;28;20196;-71
2021/11/17 02:52:21;;;;;;;11.37;8.33;;;5.50;99.90;;;;;;5006162;28;20270;-70
2021/11/17 02:55:08;;;;;;;9.93;8.20;;;5.40;99.90;;;;;;5005917;28;20278;-71
2021/11/17 02:57:54;;;;;;;10.50;7.47;;;5.50;99.90;;;;;;5005424;28;20643;-74
2021/11/17 03:00:51;;;;;;;8.37;6.97;;;5.50;99.90;;;;;;5005729;28;20241;-75
2021/11/17 03:03:36;;;;;;;7.67;6.87;;;5.40;99.90;;;;;;5005147;28;20282;-73
2021/11/17 03:06:25;;;;;;;8.37;6.87;;;5.40;99.90;;;;;;5005682;28;20237;-74
2021/11/17 03:09:07;;;;;;;7.80;6.43;;;5.40;99.90;;;;;;5005682;28;20194;-72
2021/11/17 03:12:01;;;;;;;7.80;7.00;;;5.50;99.90;;;;;;5005905;28;20194;-72
2021/11/17 03:14:47;;;;;;;7.30;6.57;;;5.40;99.90;;;;;;5006628;28;20271;-72
2021/11/17 03:17:28;;;;;;;7.07;6.37;;;5.50;99.90;;;;;;5005675;28;20190;-72
2021/11/17 03:20:08;;;;;;;8.00;6.40;;;5.50;99.90;;;;;;5005760;28;20257;-72
2021/11/17 03:22:48;;;;;;;9.93;7.00;;;5.60;99.90;;;;;;5005703;28;20252;-72
2021/11/17 03:25:30;;;;;;;7.10;6.40;;;5.60;99.90;;;;;;5005579;28;20245;-73
2021/11/17 03:28:10;;;;;;;7.80;6.80;;;5.50;99.90;;;;;;5005379;28;20265;-73
2021/11/17 03:31:05;;;;;;;7.93;7.07;;;5.50;99.90;;;;;;5005684;28;20197;-73
2021/11/17 03:34:00;;;;;;;9.60;6.80;;;5.40;99.90;;;;;;5006023;28;20201;-73
2021/11/17 03:36:43;;;;;;;7.93;6.93;;;5.30;99.90;;;;;;5004898;28;20213;-73
2021/11/17 03:39:31;;;;;;;9.20;7.80;;;5.30;99.90;;;;;;5005126;28;20651;-73
2021/11/17 03:42:21;;;;;;;8.40;7.50;;;5.20;99.90;;;;;;5005073;28;20237;-73
2021/11/17 03:45:09;;;;;;;10.40;7.73;;;5.30;99.90;;;;;;5005319;28;20234;-73
2021/11/17 03:47:57;;;;;;;9.00;7.60;;;5.30;99.90;;;;;;5005298;28;20239;-73
2021/11/17 03:50:41;;;;;;;11.27;8.07;;;5.40;99.90;;;;;;5005346;28;20660;-72
2021/11/17 03:53:29;;;;;;;11.00;7.70;;;5.30;99.90;;;;;;5005247;28;20213;-72
2021/11/17 03:56:15;;;;;;;9.63;8.40;;;5.30;99.90;;;;;;5005096;28;20349;-71
2021/11/17 03:58:55;;;;;;;11.43;8.70;;;5.30;99.90;;;;;;5005071;28;20790;-72
2021/11/17 04:01:40;;;;;;;13.13;9.20;;;5.20;99.90;;;;;;5005141;28;20248;-72
2021/11/17 04:04:29;;;;;;;11.00;9.03;;;5.20;99.90;;;;;;5004854;28;20232;-71
2021/11/17 04:07:15;;;;;;;9.87;8.40;;;5.20;99.90;;;;;;5015338;28;20205;-71
2021/11/17 04:09:54;;;;;;;14.03;10.73;;;5.20;99.90;;;;;;5020821;28;20232;-71
2021/11/17 04:12:33;;;;;;;16.70;10.80;;;5.10;99.90;;;;;;5021261;28;20285;-71
2021/11/17 04:15:13;;;;;;;15.97;11.77;;;5.10;99.90;;;;;;5022519;28;20682;-71
2021/11/17 04:17:51;;;;;;;10.53;7.80;;;5.20;99.90;;;;;;5023881;28;20208;-72
2021/11/17 04:20:32;;;;;;;8.80;7.40;;;5.10;99.90;;;;;;5023988;28;20538;-72
2021/11/17 04:23:18;;;;;;;9.07;7.30;;;5.10;99.90;;;;;;5024073;28;20277;-72
2021/11/17 04:25:58;;;;;;;6.50;5.87;;;5.10;99.90;;;;;;5024092;28;20265;-72
2021/11/17 04:28:38;;;;;;;8.17;6.73;;;5.10;99.90;;;;;;5024062;28;20741;-72
2021/11/17 04:31:28;;;;;;;6.60;5.90;;;5.20;99.90;;;;;;5024302;28;20636;-71
2021/11/17 04:34:23;;;;;;;5.50;5.00;;;5.20;99.90;;;;;;5023892;28;20224;-72
2021/11/17 04:37:06;;;;;;;7.70;6.03;;;5.20;99.90;;;;;;5024050;28;20201;-71
2021/11/17 04:39:57;;;;;;;7.07;6.03;;;5.10;99.90;;;;;;5023805;28;20721;-72
2021/11/17 04:42:53;;;;;;;7.00;5.80;;;5.10;99.90;;;;;;5023847;28;20285;-71
2021/11/17 04:45:34;;;;;;;6.67;5.97;;;5.10;99.90;;;;;;5023629;28;20779;-71
2021/11/17 04:48:18;;;;;;;7.47;6.33;;;5.10;99.90;;;;;;5023954;28;20250;-72
2021/11/17 04:50:57;;;;;;;6.43;5.83;;;5.10;99.90;;;;;;5024423;28;20193;-72
2021/11/17 04:53:44;;;;;;;7.13;5.77;;;5.10;99.90;;;;;;5023768;28;20673;-72
2021/11/17 04:56:24;;;;;;;6.20;5.37;;;5.10;99.90;;;;;;5023628;28;20193;-72
2021/11/17 04:59:10;;;;;;;6.07;5.47;;;5.10;99.90;;;;;;5014192;28;20307;-72
2021/11/17 05:01:53;;;;;;;6.37;5.80;;;5.10;99.90;;;;;;5006827;28;20271;-71
2021/11/17 05:04:33;;;;;;;6.17;5.53;;;5.20;99.90;;;;;;5008018;28;20186;-71
2021/11/17 05:07:15;;;;;;;6.43;5.83;;;5.20;99.90;;;;;;5006713;28;20258;-71
2021/11/17 05:09:52;;;;;;;5.70;5.20;;;5.10;99.90;;;;;;5010714;28;20257;-71
2021/11/17 05:12:32;;;;;;;5.60;5.10;;;5.10;99.90;;;;;;5019999;28;20545;-71
2021/11/17 05:15:13;;;;;;;5.70;5.20;;;5.10;99.90;;;;;;5010562;28;20194;-71
2021/11/17 05:17:48;;;;;;;6.57;6.00;;;5.10;99.90;;;;;;5006431;28;20269;-71
2021/11/17 05:20:27;;;;;;;5.93;5.43;;;5.10;99.90;;;;;;5028901;28;20198;-71
2021/11/17 05:23:11;;;;;;;6.00;5.50;;;5.20;99.90;;;;;;5012142;28;20229;-71
2021/11/17 05:25:52;;;;;;;6.53;5.93;;;5.10;99.90;;;;;;5013545;28;20530;-71
2021/11/17 05:28:32;;;;;;;7.00;6.30;;;5.20;99.90;;;;;;5014222;28;20193;-71
2021/11/17 05:31:16;;;;;;;6.43;5.93;;;5.10;99.90;;;;;;5012329;28;20193;-71
2021/11/17 05:34:02;;;;;;;7.30;6.60;;;5.10;99.90;;;;;;5018764;28;20193;-71
2021/11/17 05:36:38;;;;;;;6.93;6.03;;;5.10;99.90;;;;;;5014769;28;20651;-71
2021/11/17 05:39:19;;;;;;;6.47;5.70;;;5.10;99.90;;;;;;5005890;28;20567;-71
2021/11/17 05:41:58;;;;;;;7.03;6.17;;;5.10;99.90;;;;;;5006019;28;20224;-71
2021/11/17 05:44:36;;;;;;;6.77;6.07;;;5.10;99.90;;;;;;5005819;28;20204;-72
2021/11/17 05:47:31;;;;;;;6.87;5.60;;;5.10;99.90;;;;;;5005719;28;20249;-71
2021/11/17 05:50:15;;;;;;;8.00;6.60;;;5.10;99.90;;;;;;5005337;28;20225;-71
2021/11/17 05:52:55;;;;;;;8.30;6.97;;;5.00;99.90;;;;;;5005924;28;20236;-71
2021/11/17 05:55:38;;;;;;;9.47;7.07;;;5.00;99.90;;;;;;5005773;28;20190;-71
2021/11/17 05:58:18;;;;;;;8.50;7.33;;;5.00;99.90;;;;;;5021375;28;20198;-71
2021/11/17 06:01:01;;;;;;;9.30;7.03;;;5.00;99.90;;;;;;5005510;28;20232;-71
2021/11/17 06:03:41;;;;;;;9.20;6.97;;;5.00;99.90;;;;;;5005496;28;20701;-71
2021/11/17 06:06:07;;;;;;;9.93;7.43;;;5.00;99.90;;;;;;5005617;28;20272;-71
2021/11/17 06:08:33;;;;;;;8.13;7.33;;;5.00;99.90;;;;;;5014359;28;20241;-71
2021/11/17 06:11:03;;;;;;;8.93;7.27;;;5.00;99.90;;;;;;5016057;28;20283;-72
2021/11/17 06:13:31;;;;;;;10.80;7.57;;;5.00;99.90;;;;;;5019926;28;20270;-72
2021/11/17 06:15:58;;;;;;;11.43;8.37;;;5.00;99.90;;;;;;5017116;28;21173;-72
2021/11/17 06:18:27;;;;;;;10.23;7.97;;;5.00;99.90;;;;;;5015409;28;20205;-72
2021/11/17 06:20:54;;;;;;;10.97;7.70;;;4.90;99.90;;;;;;5016744;28;20217;-72
2021/11/17 06:23:27;;;;;;;11.90;8.57;;;5.00;99.90;;;;;;5018345;28;20607;-71
2021/11/17 06:25:55;;;;;;;12.60;8.20;;;5.00;99.90;;;;;;5015439;28;20260;-72
2021/11/17 06:28:26;;;;;;;10.60;8.17;;;5.00;99.90;;;;;;5015576;28;20201;-72
2021/11/17 06:30:54;;;;;;;11.60;8.40;;;5.00;99.90;;;;;;5013734;28;20186;-77
2021/11/17 06:33:21;;;;;;;12.77;9.60;;;5.00;99.90;;;;;;5014360;28;20263;-72
2021/11/17 06:35:48;;;;;;;9.23;8.00;;;5.10;99.90;;;;;;5013926;28;20201;-72
2021/11/17 06:38:17;;;;;;;10.20;8.30;;;5.00;99.90;;;;;;5012347;28;20198;-72
2021/11/17 06:40:47;;;;;;;11.80;8.30;;;5.00;99.90;;;;;;5014501;28;20565;-72
2021/11/17 06:43:14;;;;;;;12.63;8.17;;;4.90;99.90;;;;;;5016203;28;20280;-72
2021/11/17 06:45:44;;;;;;;10.37;8.13;;;5.00;99.90;;;;;;5015892;28;21137;-72
2021/11/17 06:48:12;;;;;;;10.70;8.47;;;5.00;99.90;;;;;;5013187;28;20197;-71
2021/11/17 06:50:41;;;;;;;11.47;8.40;;;5.00;99.90;;;;;;5004793;28;20209;-72
2021/11/17 06:53:08;;;;;;;12.77;8.97;;;5.10;99.90;;;;;;5026753;28;20249;-71
2021/11/17 06:55:35;;;;;;;12.53;9.17;;;5.00;99.90;;;;;;5013119;28;20209;-72
2021/11/17 06:58:01;;;;;;;12.00;9.23;;;5.00;99.90;;;;;;5014822;28;20572;-72
2021/11/17 07:00:30;;;;;;;13.03;9.07;;;5.00;99.90;;;;;;5017387;28;20227;-71
2021/11/17 07:02:58;;;;;;;13.57;8.53;;;5.10;99.90;;;;;;5016431;28;20301;-71
2021/11/17 07:05:25;;;;;;;12.93;9.23;;;5.20;99.90;;;;;;5025377;28;20205;-71
2021/11/17 07:07:54;;;;;;;10.73;8.77;;;5.20;99.90;;;;;;5024919;28;21040;-71
2021/11/17 07:10:23;;;;;;;12.57;9.37;;;5.20;99.90;;;;;;5025156;28;20204;-71
2021/11/17 07:12:50;;;;;;;10.73;9.43;;;5.20;99.90;;;;;;5019704;28;20292;-71
2021/11/17 07:15:18;;;;;;;11.30;9.27;;;5.10;99.90;;;;;;5017860;28;20255;-77
2021/11/17 07:17:44;;;;;;;12.60;10.60;;;5.10;99.90;;;;;;5012984;28;20212;-77
2021/11/17 07:20:15;;;;;;;13.67;10.00;;;5.20;99.90;;;;;;5015919;28;20216;-73
2021/11/17 07:22:42;;;;;;;12.73;10.43;;;5.20;99.90;;;;;;5005528;28;20240;-72
2021/11/17 07:25:12;;;;;;;9.27;8.27;;;5.20;99.90;;;;;;5004835;28;20209;-73
2021/11/17 07:27:38;;;;;;;10.57;8.57;;;5.20;99.90;;;;;;5005142;28;20217;-72
2021/11/17 07:30:08;;;;;;;12.97;9.27;;;5.30;99.90;;;;;;5005500;28;20213;-72
2021/11/17 07:32:34;;;;;;;9.63;8.30;;;5.20;99.90;;;;;;5004886;28;20621;-72
2021/11/17 07:35:01;;;;;;;12.90;9.60;;;5.10;99.90;;;;;;5005406;28;20213;-72
2021/11/17 07:37:29;;;;;;;11.77;9.30;;;5.20;99.90;;;;;;5005543;28;20287;-72
2021/11/17 07:39:56;;;;;;;10.27;8.23;;;5.20;99.90;;;;;;5005212;28;20550;-72
2021/11/17 07:42:23;;;;;;;11.33;9.27;;;5.10;99.90;;;;;;5005458;28;20274;-72
2021/11/17 07:44:51;;;;;;;12.17;9.47;;;5.10;99.90;;;;;;5005012;28;20221;-72
2021/11/17 07:47:19;;;;;;;10.03;8.57;;;5.10;99.90;;;;;;5005431;28;20222;-72
2021/11/17 07:49:45;;;;;;;9.10;8.20;;;5.00;99.90;;;;;;5008550;28;20737;-72
2021/11/17 07:52:12;;;;;;;10.13;8.83;;;5.00;99.90;;;;;;5008841;28;20282;-72
2021/11/17 07:54:40;;;;;;;11.13;9.57;;;5.00;99.90;;;;;;5009083;28;20282;-72
2021/11/17 07:57:08;;;;;;;10.10;8.93;;;5.00;99.90;;;;;;5008600;28;20206;-72
2021/11/17 07:59:36;;;;;;;11.60;9.10;;;5.00;99.90;;;;;;5008696;28;20208;-72
2021/11/17 08:02:07;;;;;;;11.50;9.13;;;5.00;99.90;;;;;;5008156;28;20269;-72
2021/11/17 08:04:35;;;;;;;13.40;9.80;;;4.90;99.90;;;;;;5008615;28;20200;-72
2021/11/17 08:07:02;;;;;;;11.73;8.83;;;4.90;99.90;;;;;;5008365;28;20208;-72
2021/11/17 08:09:30;;;;;;;11.43;9.37;;;5.00;99.90;;;;;;5008289;28;20236;-72
2021/11/17 08:11:58;;;;;;;12.57;9.27;;;5.10;99.90;;;;;;5008542;28;20212;-72
2021/11/17 08:14:25;;;;;;;12.87;8.80;;;5.10;99.90;;;;;;5008485;28;20308;-72
2021/11/17 08:16:52;;;;;;;12.10;9.17;;;5.10;99.90;;;;;;5008369;28;20240;-72
2021/11/17 08:19:21;;;;;;;10.80;8.43;;;5.20;99.90;;;;;;5008452;28;20244;-72
2021/11/17 08:21:48;;;;;;;10.60;8.43;;;5.20;99.90;;;;;;5008481;28;20282;-72
2021/11/17 08:24:14;;;;;;;12.50;10.37;;;5.20;99.90;;;;;;5008204;28;20233;-72
2021/11/17 08:26:41;;;;;;;9.63;8.33;;;5.10;99.90;;;;;;5006951;28;20233;-72
2021/11/17 08:29:10;;;;;;;10.47;8.80;;;5.10;99.90;;;;;;5008016;28;20209;-72
2021/11/17 08:31:36;;;;;;;9.37;7.83;;;5.10;99.90;;;;;;5008226;28;20220;-72
2021/11/17 08:34:03;;;;;;;11.37;8.77;;;5.20;99.90;;;;;;5007719;28;20675;-72
2021/11/17 08:36:30;;;;;;;10.80;8.13;;;5.30;99.90;;;;;;5008286;28;20213;-72
2021/11/17 08:38:57;;;;;;;10.30;8.63;;;5.10;99.90;;;;;;5007928;28;20747;-72
2021/11/17 08:41:26;;;;;;;9.67;7.90;;;5.10;99.90;;;;;;5008157;28;20430;-72
2021/11/17 08:43:53;;;;;;;11.70;7.87;;;5.20;99.90;;;;;;5007996;28;20229;-72
2021/11/17 08:46:22;;;;;;;10.10;8.47;;;5.20;99.90;;;;;;5007916;28;20206;-72
2021/11/17 08:48:49;;;;;;;11.63;8.23;;;5.10;99.90;;;;;;5007633;28;20213;-72
2021/11/17 08:51:18;;;;;;;10.00;8.03;;;5.20;99.90;;;;;;5007662;28;20209;-72
2021/11/17 08:53:49;;;;;;;10.10;7.90;;;5.10;99.90;;;;;;5008042;28;20209;-72
2021/11/17 08:56:16;;;;;;;8.70;7.70;;;5.20;99.90;;;;;;5007641;28;20194;-72
2021/11/17 08:58:44;;;;;;;9.27;7.93;;;5.20;99.90;;;;;;5007664;28;20283;-72
2021/11/17 09:01:12;;;;;;;9.13;7.93;;;5.20;99.90;;;;;;5006679;28;20248;-72
2021/11/17 09:03:40;;;;;;;10.40;7.90;;;5.10;99.90;;;;;;5007500;28;20274;-72
2021/11/17 09:06:10;;;;;;;10.70;8.43;;;5.20;99.90;;;;;;5007295;28;20236;-72
2021/11/17 09:08:37;;;;;;;8.73;7.73;;;5.20;99.90;;;;;;5007867;28;20233;-72
2021/11/17 09:11:06;;;;;;;10.47;8.10;;;5.20;99.90;;;;;;5007664;28;20217;-72
2021/11/17 09:13:33;;;;;;;11.47;8.17;;;5.30;99.90;;;;;;5007708;28;20208;-72
2021/11/17 09:16:01;;;;;;;7.90;6.77;;;5.20;99.90;;;;;;5007361;28;20297;-72
2021/11/17 09:18:30;;;;;;;9.03;7.47;;;5.30;99.90;;;;;;5007712;28;20255;-72
2021/11/17 09:20:59;;;;;;;10.07;7.70;;;5.20;99.90;;;;;;5007599;28;20213;-72
2021/11/17 09:23:29;;;;;;;11.20;8.23;;;5.20;99.90;;;;;;5007401;28;20282;-72
2021/11/17 09:25:57;;;;;;;8.87;7.87;;;5.30;99.90;;;;;;5007414;28;20236;-72
2021/11/17 09:28:24;;;;;;;12.20;9.50;;;5.20;99.90;;;;;;5007409;28;20214;-72
2021/11/17 09:30:52;;;;;;;11.60;8.80;;;5.20;99.90;;;;;;5007478;28;20235;-72
2021/11/17 09:33:20;;;;;;;18.10;10.60;;;5.20;99.90;;;;;;5007239;28;20209;-72
2021/11/17 09:35:48;;;;;;;24.40;14.77;;;5.20;99.90;;;;;;5007424;28;20270;-72
2021/11/17 09:38:16;;;;;;;18.50;12.37;;;5.30;99.90;;;;;;5007348;28;20213;-72
2021/11/17 09:40:48;;;;;;;21.37;14.10;;;5.30;99.90;;;;;;5006962;28;20208;-72
2021/11/17 09:43:18;;;;;;;14.00;9.73;;;5.30;99.90;;;;;;5007022;28;20221;-72
2021/11/17 09:45:49;;;;;;;9.50;7.77;;;5.40;99.90;;;;;;5007215;28;20203;-72
2021/11/17 09:48:18;;;;;;;7.83;7.03;;;5.40;99.90;;;;;;5006739;28;20213;-72
2021/11/17 09:50:48;;;;;;;9.67;7.23;;;5.40;99.90;;;;;;5007098;28;20205;-72
2021/11/17 09:53:20;;;;;;;7.70;6.90;;;5.40;99.90;;;;;;5006739;28;20205;-72
2021/11/17 09:55:51;;;;;;;9.17;7.63;;;5.40;99.90;;;;;;5006628;28;20202;-72
2021/11/17 09:58:21;;;;;;;10.37;8.00;;;5.30;99.90;;;;;;5007081;28;20247;-72
2021/11/17 10:00:52;;;;;;;8.33;7.33;;;5.40;99.90;;;;;;5006580;28;20297;-72
2021/11/17 10:03:32;;;;;;;10.03;7.97;;;5.50;99.90;;;;;;5006890;28;20625;-72
2021/11/17 10:14:24;;;;;;;9.60;7.43;;;5.60;99.90;;;;;;5004279;28;20212;-72
2021/11/17 10:16:51;;;;;;;7.93;7.13;;;5.50;99.90;;;;;;5006290;28;20276;-72
2021/11/17 10:19:25;;;;;;;7.83;7.03;;;5.50;99.90;;;;;;5006525;28;20633;-72
2021/11/17 10:21:59;;;;;;;8.27;6.90;;;5.50;99.90;;;;;;5006446;28;20743;-73
2021/11/17 10:24:43;;;;;;;7.57;6.40;;;5.60;99.90;;;;;;5006484;28;20298;-72
2021/11/17 10:27:11;;;;;;;8.10;7.30;;;5.60;99.90;;;;;;5006591;28;20201;-72
2021/11/17 10:29:40;;;;;;;7.47;6.43;;;5.50;99.90;;;;;;5006629;28;20267;-72
2021/11/17 10:32:25;;;;;;;10.17;6.63;;;5.50;99.90;;;;;;5005857;28;20691;-72
2021/11/17 10:34:56;;;;;;;7.43;6.73;;;5.50;99.90;;;;;;5006258;28;20227;-72
2021/11/17 10:37:30;;;;;;;8.10;6.87;;;5.50;99.90;;;;;;5006114;28;20225;-72
2021/11/17 10:39:58;;;;;;;7.80;6.87;;;5.50;99.90;;;;;;5006223;28;20200;-72
2021/11/17 10:42:35;;;;;;;7.87;6.60;;;5.50;99.90;;;;;;5006162;28;20288;-72
2021/11/17 10:45:22;;;;;;;8.90;6.87;;;5.50;99.90;;;;;;5006090;28;20322;-72
2021/11/17 10:47:50;;;;;;;8.27;7.27;;;5.50;99.90;;;;;;5004815;28;20519;-72
2021/11/17 10:50:22;;;;;;;8.13;7.33;;;5.60;99.90;;;;;;5005138;28;20209;-72
2021/11/17 10:52:53;;;;;;;7.93;6.80;;;5.60;99.90;;;;;;5006051;28;20197;-72
2021/11/17 10:55:28;;;;;;;7.13;6.43;;;5.60;99.90;;;;;;5005815;28;20209;-72
2021/11/17 10:57:55;;;;;;;8.17;6.90;;;5.50;99.90;;;;;;5005673;28;20276;-72
2021/11/17 11:00:25;;;;;;;7.33;6.10;;;5.60;99.90;;;;;;5005779;28;20252;-72
2021/11/17 11:02:53;;;;;;;9.17;7.30;;;5.60;99.90;;;;;;5005738;28;20198;-72
2021/11/17 11:05:23;;;;;;;7.83;7.00;;;5.60;99.90;;;;;;5005969;28;20237;-72
2021/11/17 11:07:54;;;;;;;10.33;6.93;;;5.60;99.90;;;;;;5006190;28;20205;-72
2021/11/17 11:10:32;;;;;;;7.93;7.10;;;5.60;99.90;;;;;;5005991;28;20202;-72
2021/11/17 11:13:01;;;;;;;7.47;6.57;;;5.60;99.90;;;;;;5005679;28;20197;-72
2021/11/17 11:15:31;;;;;;;7.90;7.07;;;5.60;99.90;;;;;;5005458;28;20668;-72
2021/11/17 11:18:27;;;;;;;8.27;7.13;;;5.60;99.90;;;;;;5005489;28;20214;-72
2021/11/17 11:20:55;;;;;;;7.67;6.67;;;5.70;99.90;;;;;;5005277;28;20250;-72
2021/11/17 11:23:26;;;;;;;8.03;7.17;;;5.60;99.90;;;;;;5008408;28;20237;-72
2021/11/17 11:26:18;;;;;;;8.30;7.17;;;5.60;99.90;;;;;;5011822;28;20236;-72
2021/11/17 11:29:07;;;;;;;8.27;7.00;;;5.60;99.90;;;;;;5012056;28;20189;-72
2021/11/17 11:31:40;;;;;;;10.63;7.43;;;5.50;99.90;;;;;;5011311;28;20614;-72
2021/11/17 11:34:37;;;;;;;7.80;7.00;;;5.60;99.90;;;;;;5011776;28;20288;-72
2021/11/17 11:37:07;;;;;;;9.07;6.90;;;5.60;99.90;;;;;;5012974;28;20668;-72
2021/11/17 11:39:46;;;;;;;10.43;7.23;;;5.60;99.90;;;;;;5012324;28;20209;-72
2021/11/17 11:42:38;;;;;;;8.97;7.60;;;5.50;99.90;;;;;;5011999;28;20205;-72
2021/11/17 11:45:37;;;;;;;9.43;7.50;;;5.50;99.90;;;;;;5011739;28;20241;-72
2021/11/17 11:48:05;;;;;;;9.73;7.37;;;5.60;99.90;;;;;;5011660;28;20877;-72
2021/11/17 11:51:03;;;;;;;9.77;7.63;;;5.60;99.90;;;;;;5012034;28;20228;-72
2021/11/17 11:54:06;;;;;;;9.80;7.83;;;5.60;99.90;;;;;;5012093;28;20202;-72
2021/11/17 11:57:11;;;;;;;14.70;10.43;;;5.60;99.90;;;;;;5011654;28;20205;-72
2021/11/17 11:59:42;;;;;;;11.93;9.07;;;5.60;99.90;;;;;;5015930;27;20256;-72
2021/11/17 12:02:11;;;;;;;10.47;8.07;;;5.60;99.90;;;;;;5011543;28;20233;-72
2021/11/17 12:04:43;;;;;;;9.53;7.80;;;5.60;99.90;;;;;;5011514;28;20233;-72
2021/11/17 12:07:12;;;;;;;12.37;7.70;;;5.60;99.90;;;;;;5011747;28;20201;-72
2021/11/17 12:09:58;;;;;;;9.80;7.40;;;5.70;99.90;;;;;;5011819;28;20216;-72
2021/11/17 12:12:28;;;;;;;8.93;8.00;;;5.70;99.90;;;;;;5011343;28;20193;-72
2021/11/17 12:15:16;;;;;;;8.83;7.37;;;5.70;99.90;;;;;;5011496;28;20198;-72
2021/11/17 12:17:43;;;;;;;7.10;6.40;;;5.80;99.90;;;;;;5011434;28;20201;-72
2021/11/17 12:20:25;;;;;;;6.60;5.97;;;5.80;99.90;;;;;;5011588;28;20243;-73
2021/11/17 12:22:55;;;;;;;6.13;5.53;;;5.80;99.90;;;;;;5011371;28;20237;-72
2021/11/17 12:25:24;;;;;;;6.17;5.57;;;5.90;99.90;;;;;;5011368;28;20306;-72
2021/11/17 12:27:58;;;;;;;7.03;5.57;;;5.90;99.90;;;;;;5011669;28;20217;-72
2021/11/17 12:30:38;;;;;;;6.13;5.53;;;6.00;99.90;;;;;;5011394;28;20221;-72
2021/11/17 12:33:15;;;;;;;6.53;5.50;;;6.00;99.90;;;;;;5011188;28;20595;-72
2021/11/17 12:35:45;;;;;;;5.97;5.37;;;6.00;99.90;;;;;;5007529;28;20243;-72
2021/11/17 12:38:15;;;;;;;5.33;4.73;;;6.00;99.90;;;;;;5008334;28;20225;-72
2021/11/17 12:40:48;;;;;;;6.40;5.03;;;6.00;99.90;;;;;;5008235;28;20194;-72
2021/11/17 12:43:26;;;;;;;5.63;5.13;;;6.00;99.90;;;;;;5007754;28;20316;-72
2021/11/17 12:46:12;;;;;;;5.30;4.80;;;6.00;99.90;;;;;;5008318;28;20282;-72
2021/11/17 12:48:44;;;;;;;7.03;5.23;;;6.00;99.90;;;;;;5008164;28;20201;-72
2021/11/17 12:51:15;;;;;;;5.93;5.13;;;6.10;99.90;;;;;;5007807;28;20263;-72
2021/11/17 12:53:48;;;;;;;8.23;5.30;;;6.00;99.90;;;;;;5007966;28;20289;-72
2021/11/17 12:56:19;;;;;;;7.50;5.40;;;6.10;99.90;;;;;;5007973;28;20201;-72
2021/11/17 12:58:49;;;;;;;5.87;5.37;;;6.10;99.90;;;;;;5008053;28;20227;-72
2021/11/17 13:01:24;;;;;;;5.97;5.40;;;6.20;99.90;;;;;;5007565;28;20290;-72
2021/11/17 13:04:05;;;;;;;5.17;4.67;;;6.10;99.90;;;;;;5007630;28;20198;-72
2021/11/17 13:06:45;;;;;;;6.10;5.50;;;6.20;99.90;;;;;;5008839;28;20202;-72
2021/11/17 13:09:15;;;;;;;5.93;5.10;;;6.20;99.90;;;;;;5007860;28;20246;-72
2021/11/17 13:12:19;;;;;;;5.80;5.13;;;6.20;99.90;;;;;;5007504;28;20239;-72
2021/11/17 13:15:11;;;;;;;6.23;5.03;;;6.20;99.90;;;;;;5009960;28;20262;-72
2021/11/17 13:17:44;;;;;;;7.00;5.50;;;6.20;99.90;;;;;;5008122;28;20206;-72
2021/11/17 13:20:28;;;;;;;5.80;5.20;;;6.20;99.90;;;;;;5007441;28;20197;-72
2021/11/17 13:23:16;;;;;;;5.93;5.37;;;6.10;99.90;;;;;;5007408;28;20247;-72
2021/11/17 13:25:53;;;;;;;6.03;5.13;;;6.10;99.90;;;;;;5007201;28;20324;-72
2021/11/17 13:28:38;;;;;;;6.33;5.40;;;6.20;99.90;;;;;;5007506;28;20194;-72
2021/11/17 13:31:26;;;;;;;6.00;5.50;;;6.20;99.90;;;;;;5007080;28;20251;-72
2021/11/17 13:33:56;;;;;;;6.40;5.80;;;6.20;99.90;;;;;;5007197;28;20255;-72
2021/11/17 13:36:45;;;;;;;6.67;5.70;;;6.20;99.90;;;;;;5007090;28;20245;-72
2021/11/17 13:39:14;;;;;;;8.63;6.30;;;6.20;99.90;;;;;;5006874;28;20202;-72
2021/11/17 13:41:44;;;;;;;7.40;6.10;;;6.20;99.90;;;;;;5006646;28;20620;-72
2021/11/17 13:44:13;;;;;;;7.33;6.20;;;6.20;99.90;;;;;;5006778;28;20575;-72
2021/11/17 13:46:56;;;;;;;6.93;6.07;;;6.30;99.90;;;;;;5006668;28;20545;-73
2021/11/17 13:49:26;;;;;;;6.27;5.67;;;6.40;99.90;;;;;;5006680;28;20202;-73
2021/11/17 13:51:53;;;;;;;6.60;5.93;;;6.40;99.90;;;;;;5006821;28;20209;-73
2021/11/17 13:54:20;;;;;;;6.30;5.70;;;6.40;99.90;;;;;;5006784;28;20263;-73
2021/11/17 13:56:47;;;;;;;6.43;5.80;;;6.40;99.90;;;;;;5006779;28;20232;-73
2021/11/17 13:59:14;;;;;;;6.00;5.50;;;6.40;99.90;;;;;;5006506;28;20222;-73
2021/11/17 14:01:42;;;;;;;6.73;5.90;;;6.50;99.90;;;;;;5006375;28;20237;-73
2021/11/17 14:04:09;;;;;;;6.67;5.77;;;6.60;99.90;;;;;;5006457;28;20244;-73
2021/11/17 14:06:39;;;;;;;10.43;9.33;;;6.50;99.90;;;;;;5006496;28;20635;-73
2021/11/17 14:09:06;;;;;;;8.20;7.40;;;6.50;99.90;;;;;;5015632;28;20216;-73
2021/11/17 14:11:34;;;;;;;7.57;5.90;;;6.50;99.90;;;;;;5015506;28;20253;-74
2021/11/17 14:14:03;;;;;;;6.70;5.33;;;6.60;99.90;;;;;;5014926;28;20204;-73
2021/11/17 14:16:31;;;;;;;5.93;5.43;;;6.60;99.90;;;;;;5013343;28;20255;-73
2021/11/17 14:18:57;;;;;;;7.90;5.97;;;6.60;99.90;;;;;;5013985;28;20579;-73
2021/11/17 14:21:26;;;;;;;5.50;4.80;;;6.50;99.90;;;;;;5009300;28;20240;-75
2021/11/17 14:23:55;;;;;;;5.90;4.93;;;6.50;99.90;;;;;;5016220;28;20220;-73
2021/11/17 14:26:25;;;;;;;6.07;5.47;;;6.50;99.90;;;;;;5014831;28;20233;-73
2021/11/17 14:28:57;;;;;;;6.07;5.43;;;6.50;99.90;;;;;;5021651;27;20222;-77
2021/11/17 14:31:25;;;;;;;6.40;5.77;;;6.50;99.90;;;;;;5017622;28;20563;-76
2021/11/17 14:33:57;;;;;;;6.47;5.77;;;6.60;99.90;;;;;;5012372;28;20220;-77
2021/11/17 14:36:25;;;;;;;5.80;5.30;;;6.70;99.90;;;;;;5014021;28;20681;-74
2021/11/17 14:38:54;;;;;;;6.63;5.40;;;6.70;99.90;;;;;;5020816;28;20923;-73
2021/11/17 14:41:24;;;;;;;6.40;5.80;;;6.60;99.90;;;;;;5021653;28;20689;-73
2021/11/17 14:43:51;;;;;;;5.57;5.07;;;6.60;99.90;;;;;;5021854;28;20703;-74
2021/11/17 14:46:18;;;;;;;7.53;6.73;;;6.60;99.90;;;;;;5022082;28;20232;-73
2021/11/17 14:48:44;;;;;;;7.23;5.63;;;6.60;99.90;;;;;;5012525;28;20213;-73
2021/11/17 14:51:12;;;;;;;6.17;5.53;;;6.60;99.90;;;;;;5001824;28;20209;-73
2021/11/17 14:53:40;;;;;;;5.40;5.00;;;6.60;99.90;;;;;;5002029;28;20266;-74
2021/11/17 14:56:09;;;;;;;6.90;4.50;;;6.60;99.90;;;;;;5001180;28;20688;-73
2021/11/17 14:58:36;;;;;;;5.40;4.90;;;6.50;99.90;;;;;;5001284;28;20226;-74
2021/11/17 15:01:06;;;;;;;4.90;4.50;;;6.50;99.90;;;;;;5001647;28;20241;-73
2021/11/17 15:03:33;;;;;;;5.60;5.10;;;6.50;99.90;;;;;;5002075;28;20619;-74
2021/11/17 15:05:59;;;;;;;5.67;5.07;;;6.50;99.90;;;;;;5001823;28;20508;-73
2021/11/17 15:08:26;;;;;;;5.30;4.73;;;6.50;99.90;;;;;;5002183;28;20258;-73
2021/11/17 15:10:53;;;;;;;5.57;5.07;;;6.50;99.90;;;;;;5001755;28;20688;-73
2021/11/17 15:13:21;;;;;;;5.27;4.87;;;6.50;99.90;;;;;;5002094;28;20251;-74
2021/11/17 15:15:49;;;;;;;5.30;4.50;;;6.50;99.90;;;;;;5002047;28;20739;-73
2021/11/17 15:18:20;;;;;;;4.87;4.47;;;6.50;99.90;;;;;;5002287;28;20214;-73
2021/11/17 15:20:47;;;;;;;5.70;5.10;;;6.50;99.90;;;;;;5002305;28;20237;-73
2021/11/17 15:23:14;;;;;;;5.57;5.07;;;6.50;99.90;;;;;;5001530;28;20310;-73
2021/11/17 15:25:43;;;;;;;6.47;5.37;;;6.50;99.90;;;;;;5001865;28;20233;-74
2021/11/17 15:28:12;;;;;;;5.53;4.83;;;6.50;99.90;;;;;;5001729;28;20696;-73
2021/11/17 15:30:42;;;;;;;5.10;4.70;;;6.50;99.90;;;;;;5001853;28;20262;-73
2021/11/17 15:33:09;;;;;;;5.33;4.83;;;6.50;99.90;;;;;;5001907;28;20197;-74
2021/11/17 15:35:37;;;;;;;5.93;5.43;;;6.50;99.90;;;;;;5001715;28;20749;-74
2021/11/17 15:38:06;;;;;;;5.40;4.87;;;6.60;99.90;;;;;;5001750;28;20266;-73
2021/11/17 15:40:36;;;;;;;5.20;4.80;;;6.50;99.90;;;;;;5003705;28;20744;-74
2021/11/17 15:43:03;;;;;;;4.67;4.30;;;6.50;99.90;;;;;;5011665;28;20225;-71
2021/11/17 15:45:31;;;;;;;6.13;5.10;;;6.50;99.90;;;;;;5020916;28;20228;-71
2021/11/17 15:48:00;;;;;;;4.93;4.53;;;6.50;99.90;;;;;;5020575;28;20208;-71
2021/11/17 15:50:32;;;;;;;5.60;5.10;;;6.50;99.90;;;;;;5020466;28;20201;-71
2021/11/17 15:52:59;;;;;;;5.10;4.60;;;6.50;99.90;;;;;;5020631;28;20250;-71
2021/11/17 15:55:27;;;;;;;5.43;4.60;;;6.50;99.90;;;;;;5021095;28;20201;-71
2021/11/17 15:57:54;;;;;;;4.67;4.23;;;6.50;99.90;;;;;;5020970;28;20236;-71
2021/11/17 16:00:23;;;;;;;5.33;4.83;;;6.50;99.90;;;;;;5021511;28;20289;-72
2021/11/17 16:02:50;;;;;;;4.70;4.30;;;6.60;99.90;;;;;;5015858;28;20201;-72
2021/11/17 16:05:19;;;;;;;5.03;4.63;;;6.60;99.90;;;;;;5020947;28;20312;-73